Time;durP1;ratioP1;P1;durP2;ratioP2;P2;SDS_P1;SDS_P2;PMS_P1;PMS_P2;Temp;Humidity;BMP_temperature;BMP_pressure;BME280_temperature;BME280_humidity;BME280_pressure;Samples;Min_cycle;Max_cycle;Signal;HPM_P1;HPM_P2
2023/06/01 00:00:30;;;;;;;0.40;0.40;;;;;;;15.83;49.72;97001.16;29396;255;63005;-51
2023/06/01 00:01:04;;;;;;;0.40;0.40;;;;;;;15.77;49.28;96997.78;29396;249;63009;-51
2023/06/01 00:01:38;;;;;;;0.45;0.45;;;;;;;15.75;50.00;97000.03;29395;202;64009;-51
2023/06/01 00:02:11;;;;;;;0.40;0.40;;;;;;;15.71;49.41;96999.06;29396;212;63009;-51
2023/06/01 00:02:43;;;;;;;0.40;0.40;;;;;;;15.70;49.13;96998.28;29396;219;63005;-51
2023/06/01 00:03:14;;;;;;;0.40;0.40;;;;;;;15.71;48.82;96993.59;29396;336;63009;-51
2023/06/01 00:03:50;;;;;;;0.40;0.40;;;;;;;15.70;48.54;96992.81;29396;246;63004;-51
2023/06/01 00:04:21;;;;;;;0.95;0.95;;;;;;;15.72;48.65;97001.50;29396;202;63021;-51
2023/06/01 00:04:55;;;;;;;0.40;0.40;;;;;;;15.71;48.65;96994.41;29396;281;63004;-51
2023/06/01 00:05:28;;;;;;;0.40;0.40;;;;;;;15.67;51.02;97003.59;29396;222;63008;-51
2023/06/01 00:06:00;;;;;;;0.50;0.50;;;;;;;15.63;51.00;96997.94;29395;196;64008;-51
2023/06/01 00:06:31;;;;;;;0.40;0.40;;;;;;;15.61;50.25;96999.41;29396;212;63009;-50
2023/06/01 00:07:05;;;;;;;0.40;0.40;;;;;;;15.61;49.89;96996.66;29396;211;63015;-51
2023/06/01 00:07:37;;;;;;;0.50;0.50;;;;;;;15.60;49.36;96993.13;29397;315;63009;-52
2023/06/01 00:08:08;;;;;;;0.45;0.45;;;;;;;15.60;49.12;96992.31;29397;197;63010;-51
2023/06/01 00:08:39;;;;;;;0.40;0.40;;;;;;;15.61;49.26;96992.00;29397;240;63009;-50
2023/06/01 00:09:11;;;;;;;0.40;0.40;;;;;;;15.62;49.11;96990.06;29397;203;63005;-51
2023/06/01 00:09:42;;;;;;;0.40;0.40;;;;;;;15.63;48.60;96991.69;29397;225;63009;-51
2023/06/01 00:10:13;;;;;;;0.40;0.40;;;;;;;15.62;49.03;96987.31;29397;217;63005;-50
2023/06/01 00:10:45;;;;;;;0.40;0.40;;;;;;;15.62;48.45;96988.13;29397;197;63021;-52
2023/06/01 00:11:16;;;;;;;0.40;0.40;;;;;;;15.63;48.64;96988.94;29396;252;64009;-51
2023/06/01 00:11:47;;;;;;;0.40;0.40;;;;;;;15.63;48.43;96981.53;29397;213;63009;-51
2023/06/01 00:12:18;;;;;;;0.40;0.40;;;;;;;15.64;48.67;96983.16;29397;311;63004;-51
2023/06/01 00:12:50;;;;;;;0.40;0.40;;;;;;;15.64;48.37;96988.63;29397;204;63009;-51
2023/06/01 00:13:21;;;;;;;0.40;0.40;;;;;;;15.65;48.28;96986.69;29397;201;63004;-50
2023/06/01 00:13:52;;;;;;;0.40;0.40;;;;;;;15.66;48.33;96986.38;29397;209;63009;-51
2023/06/01 00:14:24;;;;;;;0.40;0.40;;;;;;;15.66;48.43;96983.63;29397;238;63005;-51
2023/06/01 00:14:55;;;;;;;0.40;0.40;;;;;;;15.66;48.23;96986.38;29397;220;63009;-51
2023/06/01 00:15:27;;;;;;;0.40;0.40;;;;;;;15.67;48.41;96981.69;29397;230;63014;-51
2023/06/01 00:15:58;;;;;;;0.40;0.40;;;;;;;15.68;48.09;96983.31;29397;249;63009;-51
2023/06/01 00:16:32;;;;;;;0.40;0.40;;;;;;;15.68;48.10;96984.13;29396;221;64009;-51
2023/06/01 00:17:05;;;;;;;0.40;0.40;;;;;;;15.68;47.94;96977.84;29397;213;63009;-51
2023/06/01 00:17:36;;;;;;;0.40;0.40;;;;;;;15.69;48.22;96984.91;29397;281;63004;-50
2023/06/01 00:18:08;;;;;;;0.40;0.40;;;;;;;15.68;48.15;96983.31;29396;228;64009;-52
2023/06/01 00:18:40;;;;;;;0.40;0.40;;;;;;;15.67;48.20;96985.25;29396;252;64009;-51
2023/06/01 00:19:11;;;;;;;0.40;0.40;;;;;;;15.68;47.97;96977.84;29397;204;63009;-51
2023/06/01 00:19:44;;;;;;;0.40;0.40;;;;;;;15.64;50.07;96990.56;29396;364;63004;-51
2023/06/01 00:20:17;;;;;;;0.40;0.40;;;;;;;15.60;49.35;96987.66;29395;221;64013;-51
2023/06/01 00:20:48;;;;;;;0.40;0.40;;;;;;;15.61;49.25;96985.72;29397;204;63004;-51
2023/06/01 00:21:19;;;;;;;0.40;0.40;;;;;;;15.60;48.78;96986.84;29396;220;63009;-51
2023/06/01 00:21:53;;;;;;;0.40;0.40;;;;;;;15.59;50.32;96996.22;29396;202;63011;-51
2023/06/01 00:22:24;;;;;;;0.40;0.40;;;;;;;15.50;50.78;96998.09;29396;218;63009;-50
2023/06/01 00:22:57;;;;;;;0.40;0.40;;;;;;;15.45;50.61;96995.53;29396;219;63005;-51
2023/06/01 00:23:28;;;;;;;0.40;0.40;;;;;;;15.39;50.30;96995.69;29396;197;63025;-50
2023/06/01 00:23:59;;;;;;;0.40;0.40;;;;;;;15.33;50.99;97007.09;29396;220;63005;-51
2023/06/01 00:24:31;;;;;;;0.47;0.47;;;;;;;15.29;51.79;96997.91;29395;221;64013;-50
2023/06/01 00:25:02;;;;;;;0.40;0.40;;;;;;;15.28;50.86;97008.03;29396;214;63004;-51
2023/06/01 00:25:33;;;;;;;0.40;0.40;;;;;;;15.29;50.54;97004.19;29396;268;63024;-51
2023/06/01 00:26:05;;;;;;;0.40;0.40;;;;;;;15.30;50.48;97005.78;29395;215;64004;-51
2023/06/01 00:26:37;;;;;;;0.50;0.50;;;;;;;15.31;50.92;97010.12;29396;215;63009;-60
2023/06/01 00:27:09;;;;;;;0.40;0.40;;;;;;;15.27;51.22;97011.91;29396;202;63004;-50
2023/06/01 00:27:40;;;;;;;0.50;0.50;;;;;;;15.23;51.02;97005.50;29396;278;63008;-51
2023/06/01 00:28:11;;;;;;;0.40;0.40;;;;;;;15.22;51.52;97012.09;29396;211;63005;-50
2023/06/01 00:28:42;;;;;;;0.40;0.40;;;;;;;15.21;50.61;97013.19;29396;203;63009;-51
2023/06/01 00:29:14;;;;;;;0.40;0.40;;;;;;;15.20;51.35;97014.31;29395;212;64009;-51
2023/06/01 00:29:45;;;;;;;0.40;0.40;;;;;;;15.18;51.36;97010.31;29396;207;63009;-51
2023/06/01 00:30:16;;;;;;;0.40;0.40;;;;;;;15.17;50.87;97012.22;29396;280;63005;-51
2023/06/01 00:30:47;;;;;;;0.40;0.40;;;;;;;15.18;50.80;97008.38;29396;213;63009;-51
2023/06/01 00:31:19;;;;;;;0.40;0.40;;;;;;;15.19;51.55;97015.44;29396;200;63005;-51
2023/06/01 00:31:50;;;;;;;0.47;0.47;;;;;;;15.17;51.02;97012.22;29396;202;63009;-50
2023/06/01 00:32:21;;;;;;;0.40;0.40;;;;;;;15.17;50.75;97011.44;29396;208;63004;-51
2023/06/01 00:32:53;;;;;;;0.40;0.40;;;;;;;15.17;50.47;97006.75;29396;244;63009;-51
2023/06/01 00:33:24;;;;;;;0.40;0.40;;;;;;;15.18;51.20;97005.63;29396;196;63004;-51
2023/06/01 00:33:55;;;;;;;0.43;0.43;;;;;;;15.16;52.59;97012.53;29396;206;63009;-51
2023/06/01 00:34:27;;;;;;;0.40;0.40;;;;;;;15.13;51.58;97002.25;29395;196;64009;-51
2023/06/01 00:34:58;;;;;;;0.40;0.40;;;;;;;15.13;51.56;97004.97;29396;242;63008;-51
2023/06/01 00:35:29;;;;;;;0.40;0.40;;;;;;;15.12;51.07;97000.63;29396;323;63004;-60
2023/06/01 00:36:00;;;;;;;0.40;0.40;;;;;;;15.13;51.52;97002.25;29396;206;63009;-51
2023/06/01 00:36:32;;;;;;;0.40;0.40;;;;;;;15.11;52.12;97008.03;29396;197;63005;-51
2023/06/01 00:37:04;;;;;;;0.40;0.40;;;;;;;15.11;51.69;97013.50;29396;245;63020;-51
2023/06/01 00:37:36;;;;;;;0.40;0.40;;;;;;;15.11;51.31;97004.50;29396;202;63017;-51
2023/06/01 00:38:07;;;;;;;0.47;0.47;;;;;;;15.09;51.77;97007.53;29396;207;63009;-51
2023/06/01 00:38:38;;;;;;;0.40;0.40;;;;;;;15.05;51.12;97003.84;29395;212;64009;-51
2023/06/01 00:39:10;;;;;;;0.40;0.40;;;;;;;15.02;51.53;97009.94;29396;228;63009;-51
2023/06/01 00:39:41;;;;;;;0.50;0.50;;;;;;;15.01;51.14;96997.41;29396;233;63005;-51
2023/06/01 00:40:12;;;;;;;0.40;0.40;;;;;;;15.01;50.80;97000.13;29395;232;64009;-51
2023/06/01 00:40:44;;;;;;;0.40;0.40;;;;;;;15.01;50.98;96994.66;29395;218;64009;-52
2023/06/01 00:41:17;;;;;;;0.47;0.47;;;;;;;15.03;50.62;97000.63;29396;257;63009;-51
2023/06/01 00:41:48;;;;;;;0.40;0.40;;;;;;;15.04;50.48;97004.97;29395;245;64009;-51
2023/06/01 00:42:20;;;;;;;0.40;0.40;;;;;;;15.05;50.54;97001.09;29396;262;63008;-51
2023/06/01 00:42:51;;;;;;;0.40;0.40;;;;;;;15.06;50.52;96999.97;29396;263;63004;-50
2023/06/01 00:43:22;;;;;;;0.40;0.40;;;;;;;15.06;52.04;97000.78;29396;243;63009;-51
2023/06/01 00:43:53;;;;;;;0.40;0.40;;;;;;;15.04;51.67;97003.03;29396;229;63005;-51
2023/06/01 00:44:25;;;;;;;0.50;0.50;;;;;;;15.02;51.97;97004.47;29397;362;63009;-51
2023/06/01 00:44:58;;;;;;;0.40;0.40;;;;;;;15.00;51.54;96998.53;29395;202;64009;-52
2023/06/01 00:45:30;;;;;;;0.50;0.50;;;;;;;14.99;51.11;97000.44;29396;246;63009;-51
2023/06/01 00:46:03;;;;;;;0.40;0.40;;;;;;;15.00;51.19;97001.25;29396;238;63005;-51
2023/06/01 00:46:37;;;;;;;0.40;0.40;;;;;;;15.00;51.19;97001.25;29396;326;63009;-51
2023/06/01 00:47:09;;;;;;;0.40;0.40;;;;;;;14.97;52.04;97010.09;29396;218;63015;-51
2023/06/01 00:47:42;;;;;;;0.50;0.50;;;;;;;14.93;52.06;97006.37;29396;222;63009;-51
2023/06/01 00:48:16;;;;;;;0.50;0.50;;;;;;;14.89;52.13;97005.44;29395;224;64009;-51
2023/06/01 00:48:47;;;;;;;0.50;0.50;;;;;;;14.88;51.86;97003.81;29395;362;64013;-51
2023/06/01 00:49:19;;;;;;;0.50;0.50;;;;;;;14.86;52.05;97000.59;29396;202;63011;-51
2023/06/01 00:49:51;;;;;;;0.47;0.47;;;;;;;14.86;51.92;97006.06;29396;220;63008;-51
2023/06/01 00:50:23;;;;;;;0.40;0.40;;;;;;;14.84;52.22;97011.03;29396;225;63004;-52
2023/06/01 00:50:57;;;;;;;0.50;0.50;;;;;;;14.81;52.40;97014.41;29396;239;63005;-51
2023/06/01 00:51:32;;;;;;;0.45;0.45;;;;;;;14.73;52.53;97008.59;29396;206;63005;-51
2023/06/01 00:52:05;;;;;;;0.40;0.40;;;;;;;14.70;52.72;97009.22;29396;217;63009;-51
2023/06/01 00:52:38;;;;;;;0.50;0.50;;;;;;;14.69;53.08;97007.59;29396;242;63005;-51
2023/06/01 00:53:17;;;;;;;0.45;0.45;;;;;;;14.68;53.03;97011.44;29397;217;63020;-51
2023/06/01 00:53:49;;;;;;;0.50;0.50;;;;;;;14.69;52.82;97010.34;29395;240;64009;-51
2023/06/01 00:54:21;;;;;;;0.50;0.50;;;;;;;14.69;52.51;97002.12;29396;237;63009;-51
2023/06/01 00:54:52;;;;;;;0.40;0.40;;;;;;;14.69;53.44;97010.34;29396;259;63004;-59
2023/06/01 00:55:23;;;;;;;0.40;0.40;;;;;;;14.66;53.57;97002.78;29396;198;63009;-50
2023/06/01 00:55:56;;;;;;;0.50;0.50;;;;;;;14.65;52.83;97012.09;29396;254;63004;-51
2023/06/01 00:56:28;;;;;;;0.40;0.40;;;;;;;14.66;52.48;97010.97;29396;251;63009;-51
2023/06/01 00:57:01;;;;;;;0.50;0.50;;;;;;;14.67;52.44;97009.84;29396;196;63004;-51
2023/06/01 00:57:33;;;;;;;0.50;0.50;;;;;;;14.68;52.24;96999.72;29396;203;63008;-52
2023/06/01 00:58:07;;;;;;;0.50;0.50;;;;;;;14.67;53.20;97009.84;29395;210;64008;-50
2023/06/01 00:58:39;;;;;;;0.50;0.50;;;;;;;14.66;52.54;97008.22;29396;198;63009;-51
2023/06/01 00:59:12;;;;;;;0.50;0.50;;;;;;;14.66;52.70;97004.69;29396;206;63005;-52
2023/06/01 00:59:44;;;;;;;0.47;0.47;;;;;;;14.66;52.08;97007.44;29395;232;64014;-51
2023/06/01 01:00:17;;;;;;;0.50;0.50;;;;;;;14.65;52.32;96998.44;29396;258;63005;-52
2023/06/01 01:00:48;;;;;;;0.50;0.50;;;;;;;14.66;52.14;96996.50;29396;254;63024;-50
2023/06/01 01:01:24;;;;;;;0.50;0.50;;;;;;;14.65;52.39;97006.63;29396;198;63005;-51
2023/06/01 01:01:55;;;;;;;0.50;0.50;;;;;;;14.65;52.47;97006.63;29396;205;63009;-51
2023/06/01 01:02:31;;;;;;;0.40;0.40;;;;;;;14.63;52.43;97003.41;29396;256;63004;-51
2023/06/01 01:03:08;;;;;;;0.50;0.50;;;;;;;14.62;52.11;97001.78;29396;263;63025;-51
2023/06/01 01:03:40;;;;;;;0.40;0.40;;;;;;;14.62;52.30;97001.78;29396;224;63004;-51
2023/06/01 01:04:14;;;;;;;0.50;0.50;;;;;;;14.63;52.10;96997.94;29396;237;63009;-51
2023/06/01 01:04:52;;;;;;;1.00;1.00;;;;;;;14.63;52.45;96997.94;29395;248;64009;-51
2023/06/01 01:05:26;;;;;;;0.50;0.50;;;;;;;14.64;52.16;96993.28;29396;217;63008;-50
2023/06/01 01:06:26;;;;;;;0.45;0.45;;;;;;;14.64;52.30;96999.56;29396;225;63018;-51
2023/06/01 01:07:28;;;;;;;0.50;0.50;;;;;;;14.63;51.91;96994.41;29395;257;64014;-51
2023/06/01 01:08:17;;;;;;;;;;;;;;;14.63;51.91;96992.47;29996;982;5201;-51
2023/06/01 01:09:41;;;;;;;0.50;0.50;;;;;;;14.62;52.07;96990.87;29401;327;63000;-53
2023/06/01 01:10:46;;;;;;;0.50;0.50;;;;;;;14.60;52.49;96993.09;29397;224;63004;-51
2023/06/01 01:11:26;;;;;;;0.50;0.50;;;;;;;14.59;52.68;96988.75;29395;525;64009;-51
2023/06/01 01:12:07;;;;;;;0.50;0.50;;;;;;;14.57;53.04;96988.28;29397;358;63009;-51
2023/06/01 01:13:01;;;;;;;0.50;0.50;;;;;;;14.54;52.33;96994.41;29397;269;63004;-51
2023/06/01 01:13:52;;;;;;;0.50;0.50;;;;;;;14.56;52.48;96991.31;29396;236;63009;-51
2023/06/01 01:14:30;;;;;;;0.50;0.50;;;;;;;14.55;52.37;96990.53;29417;235;63005;-51
2023/06/01 01:15:32;;;;;;;0.50;0.50;;;;;;;14.56;52.35;96988.59;29394;260;64013;-51
2023/06/01 01:16:18;;;;;;;0.40;0.40;;;;;;;14.56;52.16;96992.13;29393;261;64009;-51
2023/06/01 01:17:02;;;;;;;0.50;0.50;;;;;;;14.56;52.36;96988.59;29396;307;63009;-51
2023/06/01 01:17:38;;;;;;;0.50;0.50;;;;;;;14.55;52.38;96990.53;29395;202;63004;-52
2023/06/01 01:18:22;;;;;;;0.50;0.50;;;;;;;14.55;52.46;96996.00;29395;292;63009;-51
2023/06/01 01:19:32;;;;;;;0.50;0.50;;;;;;;14.55;52.41;96996.00;29395;358;63004;-51
2023/06/01 01:20:10;;;;;;;0.50;0.50;;;;;;;14.56;52.45;96991.31;29395;197;63004;-60
2023/06/01 01:20:44;;;;;;;0.50;0.50;;;;;;;14.55;52.14;96990.53;29395;237;63008;-51
2023/06/01 01:21:27;;;;;;;0.40;0.40;;;;;;;14.55;52.46;96996.00;29393;199;64009;-51
2023/06/01 01:22:19;;;;;;;0.50;0.50;;;;;;;14.53;52.14;96990.06;29395;202;63027;-51
2023/06/01 01:23:51;;;;;;;0.50;0.50;;;;;;;14.53;52.32;96997.44;29422;321;63005;-51
2023/06/01 01:25:10;;;;;;;0.40;0.40;;;;;;;14.53;52.15;96998.25;29393;256;64013;-51
2023/06/01 01:26:29;;;;;;;0.50;0.50;;;;;;;14.52;52.21;96990.37;29395;220;63004;-51
2023/06/01 01:27:38;;;;;;;0.50;0.50;;;;;;;14.51;52.19;96995.03;29393;203;64008;-50
2023/06/01 01:28:49;;;;;;;0.50;0.50;;;;;;;14.48;52.39;96990.19;29395;298;63004;-51
2023/06/01 01:29:26;;;;;;;0.50;0.50;;;;;;;14.48;52.20;96992.91;29395;199;63009;-52
2023/06/01 01:30:05;;;;;;;0.50;0.50;;;;;;;14.48;52.37;97000.31;29395;282;63005;-52
2023/06/01 01:30:40;;;;;;;0.50;0.50;;;;;;;14.47;52.69;96994.03;29395;249;63009;-50
2023/06/01 01:31:16;;;;;;;0.50;0.50;;;;;;;14.47;52.67;96996.78;29395;206;63005;-50
2023/06/01 01:31:50;;;;;;;0.50;0.50;;;;;;;14.46;52.72;96992.44;29395;202;63009;-51
2023/06/01 01:32:23;;;;;;;0.50;0.50;;;;;;;14.45;52.54;96990.81;29393;247;64009;-50
2023/06/01 01:32:57;;;;;;;0.50;0.50;;;;;;;14.47;52.68;96995.97;29395;299;63009;-50
2023/06/01 01:33:31;;;;;;;0.50;0.50;;;;;;;14.46;53.24;96992.44;29395;202;63004;-50
2023/06/01 01:34:07;;;;;;;0.50;0.50;;;;;;;14.39;54.70;96997.50;29395;236;63009;-50
2023/06/01 01:34:43;;;;;;;0.50;0.50;;;;;;;14.35;53.89;96993.78;29395;202;63004;-50
2023/06/01 01:35:15;;;;;;;0.50;0.50;;;;;;;14.34;53.45;97000.38;29395;424;63009;-51
2023/06/01 01:35:49;;;;;;;0.50;0.50;;;;;;;14.35;53.25;96993.78;29395;480;63005;-50
2023/06/01 01:36:21;;;;;;;0.50;0.50;;;;;;;14.36;53.41;96998.13;29395;360;63019;-50
2023/06/01 01:36:53;;;;;;;0.50;0.50;;;;;;;14.34;53.27;96989.44;29395;210;63017;-50
2023/06/01 01:37:25;;;;;;;0.50;0.50;;;;;;;14.35;54.89;96996.50;29393;327;64013;-50
2023/06/01 01:37:57;;;;;;;0.50;0.50;;;;;;;14.33;54.81;96993.28;29395;211;63005;-52
2023/06/01 01:38:28;;;;;;;0.50;0.50;;;;;;;14.32;53.69;96997.13;29395;246;63009;-51
2023/06/01 01:38:59;;;;;;;0.50;0.50;;;;;;;14.32;53.75;96997.13;29395;202;63005;-50
2023/06/01 01:39:31;;;;;;;0.50;0.50;;;;;;;14.31;53.43;96993.59;29395;204;63009;-50
2023/06/01 01:40:03;;;;;;;0.50;0.50;;;;;;;14.31;53.37;96988.16;29395;218;63010;-50
2023/06/01 01:40:34;;;;;;;0.50;0.50;;;;;;;14.32;53.26;96986.22;29395;203;63009;-50
2023/06/01 01:41:05;;;;;;;0.43;0.43;;;;;;;14.32;53.53;96992.50;29395;196;63004;-50
2023/06/01 01:41:37;;;;;;;0.50;0.50;;;;;;;14.32;53.34;96988.94;29393;291;64013;-50
2023/06/01 01:42:08;;;;;;;0.50;0.50;;;;;;;14.33;53.44;96988.63;29394;330;64004;-50
2023/06/01 01:42:40;;;;;;;0.50;0.50;;;;;;;14.32;53.43;96987.03;29395;226;63009;-51
2023/06/01 01:43:11;;;;;;;0.50;0.50;;;;;;;14.32;53.57;96986.22;29395;231;63005;-51
2023/06/01 01:43:44;;;;;;;0.50;0.50;;;;;;;14.33;53.42;96988.63;29395;239;63009;-50
2023/06/01 01:44:16;;;;;;;0.50;0.50;;;;;;;14.33;53.34;96994.09;29395;238;63018;-51
2023/06/01 01:44:49;;;;;;;0.50;0.50;;;;;;;14.32;53.77;96992.50;29393;197;64013;-51
2023/06/01 01:45:21;;;;;;;0.45;0.45;;;;;;;14.30;54.51;96988.47;29395;246;63005;-50
2023/06/01 01:46:17;;;;;;;0.50;0.50;;;;;;;14.27;54.06;96987.16;29395;249;63009;-50
2023/06/01 01:47:33;;;;;;;0.50;0.50;;;;;;;14.26;53.68;96982.00;29395;233;63009;-50
2023/06/01 01:48:22;;;;;;;0.50;0.50;;;;;;;14.25;53.60;96983.13;29394;457;64009;-51
2023/06/01 01:49:32;;;;;;;0.50;0.50;;;;;;;14.24;53.71;96984.25;29395;285;63009;-51
2023/06/01 01:50:08;;;;;;;0.50;0.50;;;;;;;14.23;53.76;96983.44;29395;213;63004;-50
2023/06/01 01:51:00;;;;;;;0.50;0.50;;;;;;;14.22;53.90;96981.84;29395;211;63009;-51
2023/06/01 01:51:57;;;;;;;0.50;0.50;;;;;;;14.18;54.29;96980.06;29395;208;63009;-58
2023/06/01 01:52:41;;;;;;;0.50;0.50;;;;;;;14.16;53.87;96985.03;29395;244;63009;-51
2023/06/01 01:53:18;;;;;;;0.50;0.50;;;;;;;14.15;54.45;96980.69;29394;234;64009;-50
2023/06/01 01:53:53;;;;;;;0.50;0.50;;;;;;;14.16;54.43;96987.78;29395;229;63009;-50
2023/06/01 01:54:25;;;;;;;0.50;0.50;;;;;;;14.17;54.13;96983.91;29395;196;63008;-50
2023/06/01 01:54:58;;;;;;;0.50;0.50;;;;;;;14.16;55.01;96991.31;29395;205;63009;-50
2023/06/01 01:55:31;;;;;;;0.50;0.50;;;;;;;14.14;54.98;96987.28;29395;210;63010;-51
2023/06/01 01:56:04;;;;;;;0.50;0.50;;;;;;;14.12;54.87;96984.06;29395;234;63009;-50
2023/06/01 01:56:37;;;;;;;0.50;0.50;;;;;;;14.09;55.02;96983.56;29395;207;63010;-50
2023/06/01 01:57:09;;;;;;;0.40;0.40;;;;;;;14.08;54.69;96987.41;29395;202;63008;-50
2023/06/01 01:57:41;;;;;;;0.50;0.50;;;;;;;14.08;54.72;96984.66;29395;206;63004;-50
2023/06/01 01:58:13;;;;;;;0.50;0.50;;;;;;;14.11;54.65;96982.44;29394;197;64014;-50
2023/06/01 01:58:47;;;;;;;0.50;0.50;;;;;;;14.12;54.41;96986.78;29394;204;64009;-50
2023/06/01 01:59:19;;;;;;;0.50;0.50;;;;;;;14.12;54.26;96981.31;29395;197;63009;-51
2023/06/01 01:59:51;;;;;;;0.50;0.50;;;;;;;14.12;54.56;96981.31;29394;218;64009;-51
2023/06/01 02:00:24;;;;;;;0.50;0.50;;;;;;;14.11;54.39;96979.72;29395;328;63026;-51
2023/06/01 02:00:56;;;;;;;0.50;0.50;;;;;;;14.10;54.17;96981.63;29395;196;63015;-50
2023/06/01 02:01:29;;;;;;;0.50;0.50;;;;;;;14.09;54.25;96982.75;29395;333;63009;-50
2023/06/01 02:02:00;;;;;;;0.50;0.50;;;;;;;14.08;54.11;96976.50;29395;241;63004;-50
2023/06/01 02:02:33;;;;;;;0.50;0.50;;;;;;;14.07;54.04;96980.34;29394;226;64013;-50
2023/06/01 02:03:12;;;;;;;0.50;0.50;;;;;;;14.08;54.25;96975.69;29395;236;63014;-51
2023/06/01 02:03:43;;;;;;;0.50;0.50;;;;;;;14.08;54.22;96975.69;29394;202;64013;-50
2023/06/01 02:04:15;;;;;;;0.50;0.50;;;;;;;14.08;54.01;96976.50;29395;214;63000;-51
2023/06/01 02:04:46;;;;;;;0.50;0.50;;;;;;;14.08;53.78;96973.75;29395;225;63008;-50
2023/06/01 02:05:17;;;;;;;0.50;0.50;;;;;;;14.09;54.12;96982.75;29395;226;63004;-51
2023/06/01 02:05:50;;;;;;;0.50;0.50;;;;;;;14.08;53.92;96976.50;29395;207;63009;-50
2023/06/01 02:06:23;;;;;;;0.50;0.50;;;;;;;14.09;53.81;96978.09;29395;213;63005;-50
2023/06/01 02:06:54;;;;;;;0.50;0.50;;;;;;;14.09;53.72;96982.75;29395;448;63021;-52
2023/06/01 02:07:25;;;;;;;0.47;0.47;;;;;;;14.09;53.68;96969.09;29394;237;64009;-50
2023/06/01 02:07:56;;;;;;;0.40;0.40;;;;;;;14.09;53.95;96978.09;29394;261;64013;-50
2023/06/01 02:08:27;;;;;;;0.40;0.40;;;;;;;14.09;53.88;96969.91;29395;227;63005;-50
2023/06/01 02:09:00;;;;;;;0.43;0.43;;;;;;;14.09;54.09;96975.37;29395;249;63009;-49
2023/06/01 02:09:31;;;;;;;0.40;0.40;;;;;;;14.12;53.66;96973.13;29395;241;63004;-51
2023/06/01 02:10:05;;;;;;;0.50;0.50;;;;;;;14.12;54.02;96964.94;29394;246;64013;-50
2023/06/01 02:10:37;;;;;;;0.50;0.50;;;;;;;14.12;53.79;96965.75;29395;257;63004;-50
2023/06/01 02:11:08;;;;;;;0.50;0.50;;;;;;;14.12;53.54;96971.22;29395;254;63009;-50
2023/06/01 02:11:39;;;;;;;0.50;0.50;;;;;;;14.12;53.58;96968.47;29394;215;64009;-50
2023/06/01 02:12:11;;;;;;;0.50;0.50;;;;;;;14.12;53.85;96970.41;29395;241;63008;-51
2023/06/01 02:12:42;;;;;;;0.50;0.50;;;;;;;14.12;53.92;96971.22;29394;231;64008;-50
2023/06/01 02:13:13;;;;;;;0.50;0.50;;;;;;;14.11;53.81;96968.78;29395;252;63009;-50
2023/06/01 02:13:44;;;;;;;0.50;0.50;;;;;;;14.11;53.70;96963.34;29395;466;63005;-50
2023/06/01 02:14:16;;;;;;;0.50;0.50;;;;;;;14.11;54.19;96972.34;29394;197;64014;-51
2023/06/01 02:14:47;;;;;;;0.50;0.50;;;;;;;14.09;53.97;96967.19;29395;203;63005;-50
2023/06/01 02:15:18;;;;;;;0.40;0.40;;;;;;;14.11;53.91;96961.41;29395;221;63009;-51
2023/06/01 02:15:50;;;;;;;0.50;0.50;;;;;;;14.12;53.87;96970.41;29395;235;63005;-51
2023/06/01 02:16:22;;;;;;;0.50;0.50;;;;;;;14.12;53.94;96956.75;29394;206;64013;-50
2023/06/01 02:16:54;;;;;;;0.50;0.50;;;;;;;14.09;54.04;96961.72;29395;270;63005;-50
2023/06/01 02:17:27;;;;;;;0.50;0.50;;;;;;;14.10;53.78;96962.53;29395;232;63009;-50
2023/06/01 02:17:58;;;;;;;0.50;0.50;;;;;;;14.09;53.93;96961.72;29395;486;63004;-51
2023/06/01 02:18:31;;;;;;;0.50;0.50;;;;;;;14.07;53.67;96958.50;29395;238;63009;-59
2023/06/01 02:19:03;;;;;;;0.50;0.50;;;;;;;14.06;53.95;96956.91;29395;231;63004;-50
2023/06/01 02:19:34;;;;;;;0.50;0.50;;;;;;;14.06;54.06;96962.34;29395;204;63008;-59
2023/06/01 02:20:07;;;;;;;0.50;0.50;;;;;;;14.06;53.94;96961.53;29394;196;64008;-50
2023/06/01 02:20:38;;;;;;;0.50;0.50;;;;;;;14.04;53.75;96964.59;29395;258;63009;-60
2023/06/01 02:21:09;;;;;;;0.50;0.50;;;;;;;14.03;54.30;96960.25;29395;245;63005;-50
2023/06/01 02:21:40;;;;;;;0.50;0.50;;;;;;;14.01;53.94;96953.50;29395;252;63009;-51
2023/06/01 02:22:11;;;;;;;0.50;0.50;;;;;;;14.01;53.86;96962.47;29395;232;63005;-51
2023/06/01 02:22:43;;;;;;;0.50;0.50;;;;;;;14.00;54.13;96957.34;29395;226;63009;-50
2023/06/01 02:23:14;;;;;;;0.50;0.50;;;;;;;14.00;54.38;96963.59;29395;196;63005;-50
2023/06/01 02:23:46;;;;;;;0.40;0.40;;;;;;;13.99;54.56;96955.72;29394;243;64013;-51
2023/06/01 02:24:17;;;;;;;0.50;0.50;;;;;;;13.95;55.16;96969.19;29394;229;64009;-50
2023/06/01 02:24:48;;;;;;;0.40;0.40;;;;;;;13.93;54.63;96963.22;29395;257;63023;-51
2023/06/01 02:25:20;;;;;;;0.50;0.50;;;;;;;13.93;54.84;96965.97;29394;407;64009;-50
2023/06/01 02:25:51;;;;;;;0.50;0.50;;;;;;;13.93;54.73;96968.69;29395;223;63009;-51
2023/06/01 02:26:23;;;;;;;0.40;0.40;;;;;;;13.93;54.89;96962.44;29395;216;63004;-50
2023/06/01 02:26:55;;;;;;;0.50;0.50;;;;;;;13.93;54.71;96962.44;29395;204;63009;-50
2023/06/01 02:27:27;;;;;;;0.50;0.50;;;;;;;13.92;54.94;96972.53;29395;226;63004;-49
2023/06/01 02:27:58;;;;;;;0.50;0.50;;;;;;;13.91;54.67;96970.91;29395;242;63009;-50
2023/06/01 02:28:30;;;;;;;0.40;0.40;;;;;;;13.90;54.66;96972.03;29394;243;64009;-51
2023/06/01 02:29:07;;;;;;;0.47;0.47;;;;;;;13.90;54.94;96969.31;29395;309;63009;-52
2023/06/01 02:29:39;;;;;;;0.50;0.50;;;;;;;13.90;54.77;96968.50;29395;218;63005;-51
2023/06/01 02:30:11;;;;;;;0.50;0.50;;;;;;;13.88;54.82;96971.53;29395;197;63009;-51
2023/06/01 02:30:42;;;;;;;0.50;0.50;;;;;;;13.87;55.15;96964.47;29395;212;63005;-51
2023/06/01 02:31:17;;;;;;;0.50;0.50;;;;;;;13.88;55.14;96970.75;29395;410;63013;-51
2023/06/01 02:31:50;;;;;;;0.50;0.50;;;;;;;13.87;54.82;96969.94;29395;196;63004;-51
2023/06/01 02:32:21;;;;;;;0.47;0.47;;;;;;;13.88;55.32;96970.75;29395;262;63009;-52
2023/06/01 02:32:53;;;;;;;0.40;0.40;;;;;;;13.85;54.97;96969.47;29394;492;64009;-51
2023/06/01 02:33:27;;;;;;;0.40;0.40;;;;;;;13.85;54.99;96966.75;29395;202;63009;-51
2023/06/01 02:33:59;;;;;;;0.45;0.45;;;;;;;13.83;55.21;96968.97;29395;249;63004;-51
2023/06/01 02:34:31;;;;;;;0.40;0.40;;;;;;;13.84;55.19;96975.22;29395;249;63008;-50
2023/06/01 02:35:03;;;;;;;0.40;0.40;;;;;;;13.82;54.92;96967.34;29395;291;63014;-50
2023/06/01 02:35:34;;;;;;;0.50;0.50;;;;;;;13.82;55.23;96972.81;29395;315;63009;-51
2023/06/01 02:36:06;;;;;;;0.50;0.50;;;;;;;13.81;55.67;96970.41;29395;236;63015;-52
2023/06/01 02:36:37;;;;;;;0.50;0.50;;;;;;;13.80;55.30;96971.50;29395;197;63009;-51
2023/06/01 02:37:08;;;;;;;0.50;0.50;;;;;;;13.79;55.50;96967.19;29394;398;64009;-51
2023/06/01 02:37:40;;;;;;;0.47;0.47;;;;;;;13.79;55.43;96961.72;29395;213;63009;-61
2023/06/01 02:38:11;;;;;;;0.50;0.50;;;;;;;13.78;55.43;96971.81;29395;341;63009;-51
2023/06/01 02:38:43;;;;;;;0.50;0.50;;;;;;;13.80;55.24;96975.03;29395;442;63009;-51
2023/06/01 02:39:15;;;;;;;0.40;0.40;;;;;;;13.80;55.32;96975.03;29395;282;63004;-51
2023/06/01 02:39:47;;;;;;;0.40;0.40;;;;;;;13.79;55.38;96962.53;29395;397;63014;-51
2023/06/01 02:40:18;;;;;;;0.50;0.50;;;;;;;13.78;55.10;96960.91;29394;198;64009;-62
2023/06/01 02:40:49;;;;;;;0.50;0.50;;;;;;;13.75;55.16;96958.81;29395;403;63009;-51
2023/06/01 02:41:21;;;;;;;0.50;0.50;;;;;;;13.79;55.18;96973.44;29395;439;63004;-52
2023/06/01 02:41:53;;;;;;;0.50;0.50;;;;;;;13.78;54.91;96971.81;29395;278;63008;-51
2023/06/01 02:42:24;;;;;;;0.50;0.50;;;;;;;13.79;55.26;96965.25;29395;238;63005;-52
2023/06/01 02:42:55;;;;;;;0.40;0.40;;;;;;;13.79;55.16;96967.97;29394;491;64014;-51
2023/06/01 02:43:27;;;;;;;0.50;0.50;;;;;;;13.79;55.05;96967.97;29395;238;63005;-51
2023/06/01 02:43:58;;;;;;;0.50;0.50;;;;;;;13.80;54.97;96966.87;29395;278;63009;-51
2023/06/01 02:44:29;;;;;;;0.40;0.40;;;;;;;13.80;55.20;96969.59;29395;276;63005;-51
2023/06/01 02:45:00;;;;;;;0.50;0.50;;;;;;;13.81;55.22;96959.50;29395;480;63009;-51
2023/06/01 02:45:32;;;;;;;0.50;0.50;;;;;;;13.81;55.14;96963.03;29395;526;63005;-51
2023/06/01 02:46:03;;;;;;;0.50;0.50;;;;;;;13.80;54.96;96966.87;29395;207;63009;-52
2023/06/01 02:46:34;;;;;;;0.40;0.40;;;;;;;13.81;55.11;96960.28;29395;269;63004;-50